Alexandria, Louisiana
Current Conditions -  °F | °C
As of 8:53 PM on Monday 26 Jan 2015 (Local Time) from KAEX Reporting Station
Clear Clear  
Wind Chill: 49°   Ceiling: Unl
Heat Index: 49°   Visibility: 10mi
Dew Point: 39°   Wind: 3mph
Humidity: 69%   Direction: 230°SW
Pressure: 30.08"   Gusts: NA
Location:  31.31°N, 92.44°W
Report Text: KAEX 270253Z 23003KT 10SM CLR 09/04 A3008 RMK AO2 SLP189 T00940039 56002
Loading
Personal Weather Stations






























Interactive Weather Map New forecast layout! Learn more

10-Day Weather Forecast

Advertisements
Track Severe Weather on mobile